Ottine, Texas
Current Conditions -  °F | °C
As of 3:55 PM on Thursday 27 Nov 2014 (Local Time) from KT20 Reporting Station
Clear Clear  
Wind Chill: 67°   Ceiling: Unl
Heat Index: 67°   Visibility: 10mi
Dew Point: 34°   Wind: 7mph
Humidity: 29%   Direction: 100°E
Pressure: 30.39"   Gusts: NA
Location:  29.6°N, 97.58°W
Report Text: KT20 272155Z AUTO 10006KT 10SM CLR 19/01 A3039 RMK AO2 T01920009
Loading
Personal Weather Stations






























Interactive Weather Map New forecast layout! Learn more

10-Day Weather Forecast

Advertisements
Track Severe Weather on mobile